Time;durP1;ratioP1;P1;durP2;ratioP2;P2;SDS_P1;SDS_P2;PMS_P1;PMS_P2;Temp;Humidity;BMP_temperature;BMP_pressure;BME280_temperature;BME280_humidity;BME280_pressure;Samples;Min_cycle;Max_cycle;Signal;HPM_P1;HPM_P2
2021/09/13 00:01:31;;;;;;;0.80;0.80;;;21.40;62.60;;;;;;5053424;28;20179;-73
2021/09/13 00:03:57;;;;;;;0.70;0.70;;;21.40;62.50;;;;;;5053596;28;20175;-72
2021/09/13 00:06:22;;;;;;;1.00;1.00;;;21.40;62.60;;;;;;5052613;28;20597;-73
2021/09/13 00:08:48;;;;;;;0.85;0.80;;;21.40;62.60;;;;;;5053526;28;20214;-74
2021/09/13 00:11:13;;;;;;;1.13;1.02;;;21.30;62.50;;;;;;5053421;28;20262;-74
2021/09/13 00:13:39;;;;;;;0.80;0.80;;;21.30;62.50;;;;;;5052700;28;20175;-74
2021/09/13 00:16:05;;;;;;;1.23;0.80;;;21.40;62.60;;;;;;5053426;28;20218;-74
2021/09/13 00:18:31;;;;;;;1.92;1.02;;;21.40;62.60;;;;;;5053147;28;20179;-73
2021/09/13 00:20:57;;;;;;;0.70;0.70;;;21.30;62.40;;;;;;5052566;28;20660;-73
2021/09/13 00:23:22;;;;;;;0.90;0.77;;;21.30;62.40;;;;;;5052886;28;20225;-73
2021/09/13 00:25:48;;;;;;;1.10;1.00;;;21.30;62.40;;;;;;5053402;28;20178;-72
2021/09/13 00:28:13;;;;;;;0.73;0.73;;;21.30;62.40;;;;;;5052782;28;20171;-72
2021/09/13 00:30:39;;;;;;;0.85;0.80;;;21.30;62.40;;;;;;5053124;28;20171;-72
2021/09/13 00:33:05;;;;;;;1.92;0.77;;;21.30;62.40;;;;;;5052173;28;20183;-73
2021/09/13 00:35:30;;;;;;;1.50;0.80;;;21.30;62.40;;;;;;5052719;28;20695;-73
2021/09/13 00:37:56;;;;;;;1.20;1.10;;;21.30;62.40;;;;;;5053071;28;20174;-73
2021/09/13 00:40:22;;;;;;;1.67;0.98;;;21.30;62.30;;;;;;5051907;28;20179;-73
2021/09/13 00:42:47;;;;;;;0.85;0.77;;;21.20;62.40;;;;;;5053217;28;20172;-72
2021/09/13 00:45:13;;;;;;;1.02;0.73;;;21.30;62.40;;;;;;5053104;28;20283;-72
2021/09/13 00:47:38;;;;;;;1.08;0.88;;;21.20;62.30;;;;;;5051983;28;20213;-72
2021/09/13 00:50:04;;;;;;;0.80;0.80;;;21.20;62.20;;;;;;5053035;28;20182;-73
2021/09/13 00:52:30;;;;;;;2.25;1.20;;;21.20;62.30;;;;;;5052411;28;20174;-74
2021/09/13 00:54:55;;;;;;;1.15;0.70;;;21.20;62.30;;;;;;5034338;28;20316;-72
2021/09/13 00:57:21;;;;;;;1.08;0.80;;;21.20;62.20;;;;;;5052707;28;20175;-73
2021/09/13 00:59:46;;;;;;;0.70;0.70;;;21.20;62.20;;;;;;5035194;28;20171;-72
2021/09/13 01:02:12;;;;;;;2.55;0.90;;;21.20;62.20;;;;;;5052197;28;20175;-72
2021/09/13 01:04:37;;;;;;;1.88;1.27;;;21.20;62.20;;;;;;5052483;28;20175;-73
2021/09/13 01:07:03;;;;;;;1.48;0.75;;;21.20;62.20;;;;;;5018744;28;20170;-73
2021/09/13 01:09:28;;;;;;;1.48;1.05;;;21.20;62.10;;;;;;5034105;28;20175;-75
2021/09/13 01:11:54;;;;;;;1.67;0.95;;;21.20;62.20;;;;;;5052440;28;20636;-74
2021/09/13 01:14:19;;;;;;;0.80;0.80;;;21.20;62.10;;;;;;5034781;28;20703;-74
2021/09/13 01:16:45;;;;;;;0.90;0.90;;;21.20;62.20;;;;;;5051830;28;20221;-74
2021/09/13 01:19:11;;;;;;;0.98;0.98;;;21.10;62.10;;;;;;5052682;28;20175;-74
2021/09/13 01:21:38;;;;;;;0.75;0.75;;;21.10;62.00;;;;;;5052061;28;20629;-73
2021/09/13 01:24:04;;;;;;;1.50;1.13;;;21.10;62.00;;;;;;5034615;28;20182;-72
2021/09/13 01:26:30;;;;;;;0.77;0.77;;;21.10;62.00;;;;;;5052358;28;20175;-72
2021/09/13 01:28:55;;;;;;;0.75;0.70;;;21.10;62.00;;;;;;5052551;28;20604;-72
2021/09/13 01:31:21;;;;;;;1.60;1.00;;;21.10;62.00;;;;;;5051627;28;20225;-73
2021/09/13 01:33:46;;;;;;;0.95;0.88;;;21.10;62.00;;;;;;5052357;28;20205;-73
2021/09/13 01:36:12;;;;;;;1.10;1.00;;;21.10;61.90;;;;;;5034023;28;20207;-72
2021/09/13 01:38:37;;;;;;;1.25;0.90;;;21.10;61.80;;;;;;5052196;28;20171;-72
2021/09/13 01:41:03;;;;;;;1.00;0.90;;;21.10;61.80;;;;;;5052514;28;20232;-72
2021/09/13 01:43:28;;;;;;;0.75;0.75;;;21.10;61.90;;;;;;5052160;28;20175;-71
2021/09/13 01:45:54;;;;;;;0.73;0.73;;;21.10;61.90;;;;;;5056482;28;20184;-72
2021/09/13 01:48:19;;;;;;;1.00;0.68;;;21.10;61.80;;;;;;5056166;28;20258;-72
2021/09/13 01:50:47;;;;;;;0.90;0.90;;;21.10;61.90;;;;;;5055293;28;20183;-73
2021/09/13 01:53:12;;;;;;;2.13;0.82;;;21.10;61.90;;;;;;5056413;28;20237;-73
2021/09/13 01:55:38;;;;;;;0.80;0.80;;;21.00;61.80;;;;;;5055936;28;20677;-73
2021/09/13 01:58:03;;;;;;;0.70;0.70;;;21.00;61.90;;;;;;5055447;28;20183;-73
2021/09/13 02:00:29;;;;;;;1.17;0.93;;;21.00;62.00;;;;;;5055715;28;20177;-73
2021/09/13 02:02:54;;;;;;;0.90;0.80;;;21.00;61.90;;;;;;5055964;28;20262;-72
2021/09/13 02:05:20;;;;;;;0.80;0.80;;;21.00;61.80;;;;;;5055001;28;20645;-73
2021/09/13 02:07:45;;;;;;;1.00;0.90;;;21.00;61.70;;;;;;5055974;28;20171;-74
2021/09/13 02:10:11;;;;;;;0.80;0.80;;;21.00;61.80;;;;;;5055654;28;20619;-74
2021/09/13 02:12:36;;;;;;;1.10;1.00;;;21.00;61.80;;;;;;5055052;28;20257;-73
2021/09/13 02:15:02;;;;;;;1.95;1.00;;;21.00;61.80;;;;;;5055855;28;20206;-74
2021/09/13 02:17:27;;;;;;;1.30;0.82;;;21.00;61.70;;;;;;5055408;28;20281;-73
2021/09/13 02:19:53;;;;;;;1.25;0.90;;;21.00;61.80;;;;;;5054826;28;20224;-73
2021/09/13 02:22:18;;;;;;;0.95;0.80;;;21.00;61.80;;;;;;5056045;28;20186;-74
2021/09/13 02:24:44;;;;;;;0.52;0.52;;;21.00;61.80;;;;;;5055350;28;20544;-73
2021/09/13 02:27:09;;;;;;;1.08;0.80;;;21.00;61.90;;;;;;5055045;28;20179;-73
2021/09/13 02:29:35;;;;;;;0.98;0.88;;;21.00;61.90;;;;;;5055217;28;20230;-73
2021/09/13 02:32:00;;;;;;;0.77;0.77;;;21.00;61.80;;;;;;5055468;28;20185;-73
2021/09/13 02:34:26;;;;;;;2.10;0.77;;;20.90;62.50;;;;;;5054232;28;20652;-73
2021/09/13 02:36:51;;;;;;;1.55;0.90;;;20.90;61.70;;;;;;5055239;28;20218;-72
2021/09/13 02:39:17;;;;;;;0.90;0.90;;;20.90;61.60;;;;;;5055514;28;20171;-74
2021/09/13 02:41:42;;;;;;;1.85;0.95;;;20.90;61.70;;;;;;5054668;28;20182;-72
2021/09/13 02:44:08;;;;;;;1.33;1.10;;;21.00;61.80;;;;;;5055389;28;20182;-72
2021/09/13 02:46:33;;;;;;;2.17;1.13;;;20.90;61.70;;;;;;5054105;28;20175;-72
2021/09/13 02:48:59;;;;;;;1.27;0.88;;;20.90;61.70;;;;;;5054937;28;20198;-72
2021/09/13 02:51:25;;;;;;;0.88;0.88;;;20.90;61.60;;;;;;5054735;28;20265;-74
2021/09/13 02:53:50;;;;;;;2.35;0.75;;;20.90;61.60;;;;;;5054504;28;20274;-72
2021/09/13 02:56:16;;;;;;;0.68;0.68;;;20.90;61.70;;;;;;5054950;28;20213;-73
2021/09/13 02:58:41;;;;;;;1.20;1.10;;;20.90;61.60;;;;;;5054743;28;20163;-72
2021/09/13 03:01:07;;;;;;;1.00;0.73;;;20.90;61.70;;;;;;5054380;28;20187;-72
2021/09/13 03:03:32;;;;;;;1.15;0.77;;;20.90;61.60;;;;;;5054578;28;20171;-73
2021/09/13 03:05:58;;;;;;;0.85;0.80;;;20.90;61.40;;;;;;5054751;28;20203;-72
2021/09/13 03:08:23;;;;;;;1.65;0.98;;;20.90;61.30;;;;;;5054024;28;20869;-75
2021/09/13 03:10:49;;;;;;;1.13;1.02;;;20.90;61.30;;;;;;5054749;28;20309;-73
2021/09/13 03:13:14;;;;;;;0.77;0.77;;;20.90;61.20;;;;;;5054859;28;20174;-74
2021/09/13 03:15:40;;;;;;;0.90;0.90;;;20.90;61.10;;;;;;5053475;28;20210;-74
2021/09/13 03:18:05;;;;;;;2.55;0.95;;;20.90;61.30;;;;;;5054578;28;20171;-73
2021/09/13 03:20:31;;;;;;;0.70;0.70;;;20.90;61.10;;;;;;5054420;28;20203;-73
2021/09/13 03:22:56;;;;;;;1.05;0.98;;;20.80;61.10;;;;;;5054012;28;20171;-72
2021/09/13 03:25:24;;;;;;;0.80;0.80;;;20.80;61.10;;;;;;5054343;28;20179;-73
2021/09/13 03:27:49;;;;;;;2.42;0.90;;;20.80;61.00;;;;;;5054304;28;20641;-73
2021/09/13 03:30:15;;;;;;;1.75;1.08;;;20.80;61.00;;;;;;5053709;28;20194;-73
2021/09/13 03:32:41;;;;;;;1.23;0.95;;;20.80;61.10;;;;;;5054047;28;20178;-73
2021/09/13 03:35:07;;;;;;;1.70;0.77;;;20.80;61.00;;;;;;5054306;28;20260;-72
2021/09/13 03:37:32;;;;;;;1.30;0.90;;;20.80;61.00;;;;;;5053286;28;20175;-74
2021/09/13 03:39:58;;;;;;;2.35;1.05;;;20.80;61.00;;;;;;5054131;28;20179;-73
2021/09/13 03:42:23;;;;;;;1.45;0.80;;;20.80;61.00;;;;;;5053945;28;20698;-73
2021/09/13 03:44:49;;;;;;;0.88;0.88;;;20.80;60.90;;;;;;5053343;28;20182;-72
2021/09/13 03:47:14;;;;;;;1.45;1.00;;;20.80;60.90;;;;;;5053977;28;20175;-72
2021/09/13 03:49:40;;;;;;;0.70;0.70;;;20.80;60.90;;;;;;5053730;28;20179;-74
2021/09/13 03:52:08;;;;;;;0.80;0.80;;;20.80;60.90;;;;;;5053180;28;20628;-74
2021/09/13 03:54:35;;;;;;;2.05;0.90;;;20.80;60.90;;;;;;5053565;28;20567;-74
2021/09/13 03:57:01;;;;;;;1.60;0.90;;;20.80;60.90;;;;;;5053053;28;20541;-74
2021/09/13 03:59:26;;;;;;;0.88;0.88;;;20.80;60.90;;;;;;5053531;28;20166;-73
2021/09/13 04:01:52;;;;;;;1.27;0.90;;;20.80;60.90;;;;;;5053931;28;20214;-74
2021/09/13 04:04:22;;;;;;;0.52;0.52;;;20.80;60.80;;;;;;5052915;28;20172;-74
2021/09/13 04:06:51;;;;;;;1.88;0.90;;;20.70;60.60;;;;;;5053293;28;20194;-75
2021/09/13 04:11:57;;;;;;;1.80;0.82;;;20.70;60.70;;;;;;5052773;28;20229;-74
2021/09/13 04:14:27;;;;;;;1.15;0.77;;;20.70;60.70;;;;;;5053129;28;20630;-74
2021/09/13 04:16:53;;;;;;;0.80;0.80;;;20.70;60.80;;;;;;5053608;28;20211;-73
2021/09/13 04:19:19;;;;;;;0.88;0.70;;;20.70;60.80;;;;;;5052926;28;20171;-73
2021/09/13 04:21:44;;;;;;;2.80;0.73;;;20.70;60.70;;;;;;5052964;28;20202;-73
2021/09/13 04:24:10;;;;;;;0.70;0.70;;;20.70;60.70;;;;;;5053446;28;20171;-73
2021/09/13 04:26:35;;;;;;;1.45;0.80;;;20.70;60.60;;;;;;5052306;28;20185;-73
2021/09/13 04:29:03;;;;;;;0.80;0.77;;;20.70;60.70;;;;;;5053066;28;20168;-73
2021/09/13 04:31:29;;;;;;;0.80;0.80;;;20.70;60.60;;;;;;5053077;28;20209;-74
2021/09/13 04:33:54;;;;;;;1.20;0.75;;;20.70;60.70;;;;;;5052345;28;20210;-74
2021/09/13 04:36:20;;;;;;;0.88;0.88;;;20.70;60.70;;;;;;5052880;28;20211;-71
2021/09/13 04:38:46;;;;;;;0.80;0.75;;;20.70;60.70;;;;;;5035559;28;20195;-72
2021/09/13 04:41:11;;;;;;;1.00;0.90;;;20.70;60.60;;;;;;5052268;28;20277;-72
2021/09/13 04:43:37;;;;;;;1.73;0.90;;;20.70;60.60;;;;;;5052734;28;20274;-72
2021/09/13 04:46:02;;;;;;;0.93;0.80;;;20.70;60.70;;;;;;5052983;28;20179;-72
2021/09/13 04:48:28;;;;;;;1.52;0.80;;;20.70;60.60;;;;;;5051946;28;20175;-72
2021/09/13 04:50:54;;;;;;;1.40;0.80;;;20.70;60.80;;;;;;5052995;28;20652;-73
2021/09/13 04:53:20;;;;;;;0.95;0.90;;;20.70;60.80;;;;;;5052306;28;20183;-72
2021/09/13 04:55:45;;;;;;;0.63;0.63;;;20.70;60.80;;;;;;5053032;28;20226;-72
2021/09/13 04:58:11;;;;;;;1.33;0.70;;;20.70;60.80;;;;;;5052749;28;20517;-72
2021/09/13 05:00:36;;;;;;;1.00;0.80;;;20.60;60.60;;;;;;5051763;28;20644;-72
2021/09/13 05:03:02;;;;;;;0.98;0.80;;;20.60;60.80;;;;;;5053048;28;20262;-72
2021/09/13 05:05:28;;;;;;;1.48;0.77;;;20.70;60.80;;;;;;5052643;28;20269;-72
2021/09/13 05:07:53;;;;;;;1.23;0.75;;;20.60;60.80;;;;;;5052139;28;20209;-73
2021/09/13 05:10:19;;;;;;;1.05;0.85;;;20.70;60.80;;;;;;5052498;28;20276;-74
2021/09/13 05:12:44;;;;;;;1.52;1.20;;;20.60;60.70;;;;;;5052654;28;20541;-73
2021/09/13 05:15:10;;;;;;;2.05;0.93;;;20.60;60.80;;;;;;5052039;28;20214;-73
2021/09/13 05:17:36;;;;;;;1.35;1.00;;;20.60;60.80;;;;;;5052473;28;20198;-73
2021/09/13 05:20:01;;;;;;;1.75;1.10;;;20.60;60.80;;;;;;5056087;28;20175;-72
2021/09/13 05:22:27;;;;;;;1.02;0.77;;;20.60;60.80;;;;;;5055857;28;20175;-74
2021/09/13 05:24:52;;;;;;;1.58;0.80;;;20.60;60.70;;;;;;5056692;28;20304;-73
2021/09/13 05:27:18;;;;;;;0.75;0.70;;;20.60;60.70;;;;;;5056537;28;20656;-74
2021/09/13 05:29:43;;;;;;;1.20;0.60;;;20.60;60.80;;;;;;5055581;28;20183;-74
2021/09/13 05:32:09;;;;;;;1.08;0.85;;;20.60;60.80;;;;;;5056765;28;20197;-74
2021/09/13 05:34:34;;;;;;;4.32;1.13;;;20.60;60.80;;;;;;5056368;28;20258;-74
2021/09/13 05:37:00;;;;;;;1.05;0.95;;;20.60;60.80;;;;;;5055845;28;20215;-74
2021/09/13 05:39:25;;;;;;;1.15;1.00;;;20.60;60.80;;;;;;5056237;28;20183;-74
2021/09/13 05:41:51;;;;;;;0.90;0.90;;;20.60;60.80;;;;;;5056258;28;20175;-73
2021/09/13 05:44:17;;;;;;;1.55;0.98;;;20.60;60.80;;;;;;5055485;28;20167;-75
2021/09/13 05:46:42;;;;;;;0.80;0.80;;;20.60;60.80;;;;;;5055922;28;20543;-71
2021/09/13 05:49:11;;;;;;;0.90;0.90;;;20.60;60.70;;;;;;5056372;28;20228;-72
2021/09/13 05:51:45;;;;;;;1.02;0.93;;;20.60;61.60;;;;;;5055191;28;20174;-74
2021/09/13 05:54:11;;;;;;;1.30;0.90;;;20.60;60.80;;;;;;5056143;28;20175;-73
2021/09/13 05:56:36;;;;;;;1.02;0.95;;;20.60;60.90;;;;;;5055048;28;20575;-73
2021/09/13 05:59:02;;;;;;;1.20;1.10;;;20.60;60.90;;;;;;5056231;28;20202;-72
2021/09/13 06:01:27;;;;;;;2.20;0.88;;;20.60;60.90;;;;;;5055713;28;20605;-73
2021/09/13 06:03:53;;;;;;;1.65;0.88;;;20.60;61.00;;;;;;5055278;28;20708;-72
2021/09/13 06:06:18;;;;;;;1.05;1.05;;;20.60;61.10;;;;;;5056009;28;20181;-73
2021/09/13 06:08:44;;;;;;;0.90;0.90;;;20.60;61.10;;;;;;5055655;28;20175;-74
2021/09/13 06:11:09;;;;;;;1.17;1.00;;;20.60;61.10;;;;;;5054832;28;20230;-74
2021/09/13 06:13:35;;;;;;;2.10;0.80;;;20.60;61.10;;;;;;5055604;28;20213;-73
2021/09/13 06:16:00;;;;;;;2.00;1.20;;;20.60;61.10;;;;;;5055887;28;20305;-74
2021/09/13 06:18:26;;;;;;;1.33;1.23;;;20.60;61.20;;;;;;5054783;28;20535;-73
2021/09/13 06:20:51;;;;;;;1.35;1.00;;;20.60;61.20;;;;;;5055698;28;20179;-72
2021/09/13 06:23:17;;;;;;;1.70;1.45;;;20.60;61.30;;;;;;5055746;28;20217;-72
2021/09/13 06:25:42;;;;;;;2.20;1.65;;;20.60;61.40;;;;;;5054547;28;20691;-72
2021/09/13 06:28:08;;;;;;;1.65;1.00;;;20.60;61.20;;;;;;5055873;28;20179;-69
2021/09/13 06:30:33;;;;;;;2.38;1.05;;;20.60;61.00;;;;;;5054996;28;20179;-69
2021/09/13 06:32:59;;;;;;;2.53;1.20;;;20.60;61.30;;;;;;5054952;28;20228;-70
2021/09/13 06:35:24;;;;;;;3.30;1.35;;;20.60;61.40;;;;;;5055039;28;20276;-74
2021/09/13 06:37:50;;;;;;;2.13;1.70;;;20.60;61.10;;;;;;5055419;28;20179;-72
2021/09/13 06:40:16;;;;;;;4.28;1.80;;;20.70;61.10;;;;;;5054531;28;20179;-72
2021/09/13 06:42:41;;;;;;;2.80;1.65;;;20.70;61.00;;;;;;5054880;28;20182;-70
2021/09/13 06:45:17;;;;;;;3.53;1.33;;;20.70;61.20;;;;;;5055507;28;20171;-71
2021/09/13 06:47:45;;;;;;;3.90;1.23;;;20.70;60.90;;;;;;5054417;28;20175;-71
2021/09/13 06:50:19;;;;;;;2.80;1.30;;;20.80;61.20;;;;;;5055344;28;20171;-72
2021/09/13 06:52:45;;;;;;;3.00;1.48;;;20.80;61.30;;;;;;5054077;28;20206;-71
2021/09/13 06:55:11;;;;;;;3.58;1.67;;;20.70;61.30;;;;;;5054890;28;20572;-72
2021/09/13 06:57:37;;;;;;;3.05;1.50;;;20.70;61.30;;;;;;5054775;28;20163;-71
2021/09/13 07:00:05;;;;;;;4.07;1.65;;;20.80;61.30;;;;;;5036731;28;20185;-71
2021/09/13 07:02:31;;;;;;;2.25;1.50;;;20.80;61.30;;;;;;5037180;28;20180;-70
2021/09/13 07:04:56;;;;;;;3.15;1.27;;;20.80;61.20;;;;;;5054987;28;20214;-71
2021/09/13 07:07:22;;;;;;;4.78;1.35;;;20.80;61.20;;;;;;5053791;28;20175;-72
2021/09/13 07:09:47;;;;;;;4.57;1.45;;;20.80;62.00;;;;;;5054579;28;20222;-73
2021/09/13 07:12:13;;;;;;;3.33;1.25;;;20.90;61.20;;;;;;5054789;28;20190;-72
2021/09/13 07:14:38;;;;;;;3.47;1.15;;;20.90;61.20;;;;;;5053837;28;20209;-72
2021/09/13 07:17:04;;;;;;;2.42;1.55;;;20.90;61.20;;;;;;5054463;28;20213;-72
2021/09/13 07:19:30;;;;;;;2.58;1.08;;;20.90;62.10;;;;;;5054319;28;20171;-71
2021/09/13 07:21:55;;;;;;;2.58;1.33;;;20.90;61.30;;;;;;5053823;28;20232;-71
2021/09/13 07:24:21;;;;;;;2.13;1.55;;;20.90;61.30;;;;;;5054031;28;20175;-72
2021/09/13 07:26:48;;;;;;;2.28;1.30;;;20.90;61.30;;;;;;5054586;28;20186;-72
2021/09/13 07:29:14;;;;;;;4.32;1.95;;;20.90;61.30;;;;;;5053796;28;20178;-72
2021/09/13 07:31:39;;;;;;;2.65;1.33;;;21.00;61.30;;;;;;5054249;28;20419;-72
2021/09/13 07:34:05;;;;;;;4.53;1.50;;;21.00;61.30;;;;;;5054388;28;20167;-72
2021/09/13 07:36:32;;;;;;;1.83;1.35;;;21.00;61.20;;;;;;5053090;28;20625;-72
2021/09/13 07:38:58;;;;;;;2.47;1.40;;;21.00;61.20;;;;;;5054444;28;20171;-71
2021/09/13 07:41:23;;;;;;;2.10;1.63;;;21.10;61.20;;;;;;5052931;28;20580;-72
2021/09/13 07:43:49;;;;;;;2.67;1.30;;;21.10;61.20;;;;;;5053612;28;20225;-70
2021/09/13 07:46:14;;;;;;;2.17;1.50;;;21.10;61.20;;;;;;5054032;28;20179;-70
2021/09/13 07:48:40;;;;;;;1.77;1.30;;;21.20;61.20;;;;;;5053948;28;20171;-71
2021/09/13 07:51:05;;;;;;;1.67;1.20;;;21.20;61.20;;;;;;5053193;28;20225;-72
2021/09/13 07:53:31;;;;;;;2.17;1.80;;;21.20;61.20;;;;;;5053855;28;20257;-72
2021/09/13 07:55:56;;;;;;;2.33;1.30;;;21.30;61.20;;;;;;5053963;28;20226;-71
2021/09/13 07:58:22;;;;;;;1.17;1.10;;;21.30;61.10;;;;;;5052874;28;20167;-71
2021/09/13 08:00:47;;;;;;;1.83;1.08;;;21.30;61.20;;;;;;5053984;28;20178;-70
2021/09/13 08:03:13;;;;;;;2.13;1.25;;;21.30;61.30;;;;;;5053121;28;20171;-70
2021/09/13 08:05:38;;;;;;;2.10;1.40;;;21.30;61.40;;;;;;5053233;28;20172;-70
2021/09/13 08:08:04;;;;;;;2.17;1.40;;;21.30;61.40;;;;;;5053897;28;20641;-72
2021/09/13 08:10:29;;;;;;;2.03;1.30;;;21.40;61.50;;;;;;5052546;28;20223;-72
2021/09/13 08:12:55;;;;;;;1.65;1.20;;;21.40;61.40;;;;;;5053792;28;20167;-72
2021/09/13 08:15:23;;;;;;;1.73;1.50;;;21.50;61.40;;;;;;5053242;28;20557;-72
2021/09/13 08:17:48;;;;;;;1.60;1.30;;;21.50;61.30;;;;;;5052537;28;20630;-71
2021/09/13 08:20:14;;;;;;;1.77;1.35;;;21.60;61.30;;;;;;5053232;28;20177;-71
2021/09/13 08:22:39;;;;;;;1.13;1.02;;;21.60;61.40;;;;;;5052917;28;20241;-72
2021/09/13 08:25:05;;;;;;;2.53;1.50;;;21.60;61.40;;;;;;5052885;28;20365;-72
2021/09/13 08:27:31;;;;;;;1.52;1.23;;;21.50;61.40;;;;;;5053187;28;20167;-72
2021/09/13 08:29:56;;;;;;;1.30;1.20;;;21.50;61.60;;;;;;5053489;28;20175;-71
2021/09/13 08:32:22;;;;;;;2.25;0.98;;;21.50;61.70;;;;;;5052219;28;20171;-72
2021/09/13 08:34:47;;;;;;;1.85;1.30;;;21.50;61.70;;;;;;5052858;28;20664;-71
2021/09/13 08:37:13;;;;;;;1.40;1.13;;;21.50;61.80;;;;;;5053178;28;20175;-71
2021/09/13 08:39:38;;;;;;;1.38;1.20;;;21.40;61.90;;;;;;5052184;28;20175;-71
2021/09/13 08:42:04;;;;;;;1.10;1.00;;;21.40;61.90;;;;;;5053159;28;20638;-70
2021/09/13 08:44:32;;;;;;;1.75;1.30;;;21.40;62.10;;;;;;5052699;28;20705;-71
2021/09/13 08:47:15;;;;;;;1.63;1.10;;;21.40;62.20;;;;;;5052728;28;20179;-69
2021/09/13 08:49:41;;;;;;;2.10;0.90;;;21.40;62.30;;;;;;5052826;28;20281;-72
2021/09/13 08:52:06;;;;;;;1.92;1.13;;;21.40;62.40;;;;;;5035305;28;20217;-71
2021/09/13 08:54:35;;;;;;;2.22;1.30;;;21.30;62.40;;;;;;5051834;28;20614;-71
2021/09/13 08:57:03;;;;;;;1.98;1.20;;;21.30;62.40;;;;;;5052815;28;20225;-71
2021/09/13 08:59:29;;;;;;;2.25;1.35;;;21.30;62.50;;;;;;5051722;28;20175;-71
2021/09/13 09:01:54;;;;;;;1.05;1.00;;;21.30;62.50;;;;;;5052791;28;20638;-70
2021/09/13 09:04:20;;;;;;;1.40;1.00;;;21.30;62.60;;;;;;5052495;28;20579;-72
2021/09/13 09:06:46;;;;;;;2.38;1.25;;;21.30;62.70;;;;;;5052255;28;20186;-71
2021/09/13 09:09:13;;;;;;;1.27;1.17;;;21.20;62.70;;;;;;5052420;28;20179;-73
2021/09/13 09:12:01;;;;;;;1.65;1.00;;;21.20;62.80;;;;;;5052185;28;20227;-72
2021/09/13 09:14:43;;;;;;;1.83;1.10;;;21.20;62.80;;;;;;5051716;28;20175;-73
2021/09/13 09:17:25;;;;;;;1.88;1.27;;;21.20;62.80;;;;;;5052801;28;20219;-71
2021/09/13 09:20:12;;;;;;;1.48;1.02;;;21.20;62.70;;;;;;5052735;28;20185;-71
2021/09/13 09:22:40;;;;;;;1.20;1.10;;;21.20;62.70;;;;;;5051563;28;20309;-72
2021/09/13 09:25:07;;;;;;;1.38;1.00;;;21.20;62.70;;;;;;5052608;28;20186;-72
2021/09/13 09:28:01;;;;;;;1.90;1.60;;;21.20;62.70;;;;;;5051739;28;20289;-72
2021/09/13 09:30:43;;;;;;;1.52;1.00;;;21.20;62.70;;;;;;5052212;28;20668;-73
2021/09/13 09:33:10;;;;;;;1.20;1.10;;;21.20;62.70;;;;;;5052491;28;20210;-71
2021/09/13 09:35:49;;;;;;;1.23;1.13;;;21.20;62.70;;;;;;5051272;28;20810;-71
2021/09/13 09:38:37;;;;;;;1.95;1.10;;;21.20;62.70;;;;;;5052491;28;20182;-71
2021/09/13 09:41:11;;;;;;;2.05;1.40;;;21.20;62.70;;;;;;5052542;28;20179;-71
2021/09/13 09:43:58;;;;;;;1.13;1.05;;;21.20;62.70;;;;;;5051380;28;20183;-70
2021/09/13 09:46:24;;;;;;;1.58;1.15;;;21.30;62.70;;;;;;5052295;28;20177;-70
2021/09/13 09:48:49;;;;;;;1.15;1.05;;;21.30;62.60;;;;;;5051673;28;20293;-71
2021/09/13 09:51:32;;;;;;;1.70;1.17;;;21.20;62.60;;;;;;5034500;28;20262;-72
2021/09/13 09:53:59;;;;;;;1.60;1.30;;;21.30;62.60;;;;;;5052276;28;20186;-71
2021/09/13 09:56:26;;;;;;;1.23;1.00;;;21.30;62.60;;;;;;5051031;28;20210;-71
2021/09/13 09:58:59;;;;;;;1.02;1.00;;;21.30;62.50;;;;;;5052311;28;20177;-69
2021/09/13 10:01:32;;;;;;;1.45;1.00;;;21.30;62.60;;;;;;5051934;28;20179;-71
2021/09/13 10:04:30;;;;;;;1.13;0.80;;;21.30;63.40;;;;;;5051576;28;20254;-70
2021/09/13 10:06:57;;;;;;;1.77;1.30;;;21.30;62.50;;;;;;5055393;28;20301;-73
2021/09/13 10:09:25;;;;;;;2.40;1.05;;;21.30;62.50;;;;;;5055757;28;20199;-72
2021/09/13 10:11:52;;;;;;;0.90;0.90;;;21.30;62.50;;;;;;5055013;28;20319;-72
2021/09/13 10:14:21;;;;;;;1.40;0.98;;;21.30;63.40;;;;;;5055919;28;20175;-72
2021/09/13 10:16:46;;;;;;;2.17;1.10;;;21.40;62.60;;;;;;5059993;28;20576;-72
2021/09/13 10:19:12;;;;;;;0.95;0.95;;;21.40;62.60;;;;;;5066149;28;20718;-71
2021/09/13 10:21:38;;;;;;;1.45;1.10;;;21.40;62.70;;;;;;5063821;28;20678;-71
2021/09/13 10:24:06;;;;;;;2.05;1.17;;;21.40;62.80;;;;;;5064301;28;20261;-72
2021/09/13 10:26:31;;;;;;;1.30;1.20;;;21.40;62.90;;;;;;5047881;28;20277;-72
2021/09/13 10:29:03;;;;;;;1.40;1.00;;;21.40;63.00;;;;;;5046163;28;20167;-72
2021/09/13 10:31:47;;;;;;;1.45;1.00;;;21.40;63.00;;;;;;5062989;28;20224;-71
2021/09/13 10:34:19;;;;;;;2.10;1.05;;;21.40;63.20;;;;;;5054499;28;20630;-72
2021/09/13 10:37:00;;;;;;;2.25;0.90;;;21.40;63.10;;;;;;5052190;28;20305;-72
2021/09/13 10:39:57;;;;;;;0.80;0.80;;;21.30;63.20;;;;;;5051148;28;20179;-74
2021/09/13 10:42:40;;;;;;;0.85;0.80;;;21.30;63.20;;;;;;5052126;28;20198;-73
2021/09/13 10:45:20;;;;;;;0.90;0.90;;;21.30;63.20;;;;;;5052069;28;20206;-72
2021/09/13 10:47:54;;;;;;;2.65;1.13;;;21.30;63.30;;;;;;5052548;28;20167;-72
2021/09/13 10:50:24;;;;;;;1.85;1.20;;;21.30;63.20;;;;;;5052110;28;20170;-73
2021/09/13 10:52:51;;;;;;;1.00;1.00;;;21.40;63.30;;;;;;5054121;28;20179;-72
2021/09/13 10:55:21;;;;;;;1.48;0.90;;;21.40;63.30;;;;;;5054290;28;20668;-72
2021/09/13 10:57:53;;;;;;;2.20;1.00;;;21.40;63.30;;;;;;5055112;28;20195;-72
2021/09/13 11:00:37;;;;;;;2.55;1.83;;;21.40;63.30;;;;;;5054264;28;20217;-71
2021/09/13 11:06:02;;;;;;;1.20;0.68;;;21.40;63.20;;;;;;5055161;28;20213;-67
2021/09/13 11:08:28;;;;;;;2.42;1.00;;;21.40;63.10;;;;;;5054589;28;20179;-71
2021/09/13 11:10:53;;;;;;;0.98;0.90;;;21.40;63.00;;;;;;5054682;28;20230;-73
2021/09/13 11:13:19;;;;;;;3.40;1.10;;;21.40;63.00;;;;;;5053836;28;20244;-71
2021/09/13 11:15:48;;;;;;;4.35;2.05;;;21.40;63.00;;;;;;5054651;28;20202;-71
2021/09/13 11:18:33;;;;;;;2.95;1.20;;;21.40;63.00;;;;;;5054627;28;20175;-70
2021/09/13 11:21:18;;;;;;;2.30;1.20;;;21.40;63.00;;;;;;5053862;28;20633;-68
2021/09/13 11:23:52;;;;;;;3.67;1.48;;;21.50;63.00;;;;;;5054139;28;20605;-70
2021/09/13 11:26:18;;;;;;;2.78;1.80;;;21.50;63.00;;;;;;5054512;28;20167;-69
2021/09/13 11:28:54;;;;;;;3.25;1.30;;;21.50;63.00;;;;;;5053347;28;20537;-70
2021/09/13 11:31:40;;;;;;;3.20;1.60;;;21.50;62.90;;;;;;5054248;28;20185;-70
2021/09/13 11:34:15;;;;;;;5.22;1.83;;;21.50;62.90;;;;;;5053516;28;20178;-68
2021/09/13 11:37:03;;;;;;;3.72;1.70;;;21.60;63.10;;;;;;5054032;28;20226;-69
2021/09/13 11:39:37;;;;;;;4.13;2.00;;;21.50;62.90;;;;;;5053938;28;20174;-69
2021/09/13 11:42:05;;;;;;;5.95;1.83;;;21.60;62.90;;;;;;5053482;28;20186;-69
2021/09/13 11:44:37;;;;;;;5.68;1.92;;;21.60;62.80;;;;;;5053772;28;20183;-69
2021/09/13 11:47:05;;;;;;;5.03;1.52;;;21.60;62.90;;;;;;5054127;28;20194;-68
2021/09/13 11:49:32;;;;;;;3.97;1.27;;;21.50;62.60;;;;;;5052977;28;20642;-70
2021/09/13 11:52:18;;;;;;;3.63;1.58;;;21.50;62.50;;;;;;5053900;28;20611;-70
2021/09/13 11:55:02;;;;;;;3.47;1.50;;;21.60;62.40;;;;;;5046297;28;20179;-69
2021/09/13 11:57:34;;;;;;;3.65;1.33;;;21.60;62.20;;;;;;5052947;28;20187;-70
2021/09/13 12:00:25;;;;;;;2.33;1.50;;;21.60;62.00;;;;;;5053879;28;20171;-69
2021/09/13 12:02:57;;;;;;;2.60;1.00;;;21.60;61.80;;;;;;5053118;28;20182;-68
2021/09/13 12:05:24;;;;;;;2.10;1.20;;;21.60;61.70;;;;;;5053268;28;20172;-70
2021/09/13 12:07:51;;;;;;;3.25;1.10;;;21.60;61.70;;;;;;5053910;28;20232;-70
2021/09/13 12:10:19;;;;;;;2.35;1.30;;;21.60;61.80;;;;;;5052882;28;20771;-70
2021/09/13 12:12:47;;;;;;;2.00;1.15;;;21.70;61.60;;;;;;5053651;28;20187;-70
2021/09/13 12:15:13;;;;;;;2.95;1.25;;;21.80;61.40;;;;;;5053580;28;20253;-70
2021/09/13 12:17:43;;;;;;;2.20;1.20;;;21.80;61.10;;;;;;5052578;28;20179;-69
2021/09/13 12:20:13;;;;;;;4.25;1.80;;;21.80;61.10;;;;;;5053698;28;20270;-69
2021/09/13 12:22:38;;;;;;;1.65;1.02;;;21.90;61.10;;;;;;5053259;28;20581;-69
2021/09/13 12:25:18;;;;;;;3.45;0.85;;;21.90;61.00;;;;;;5052589;28;20613;-69
2021/09/13 12:27:44;;;;;;;6.15;1.40;;;22.00;60.90;;;;;;5052632;28;20198;-69
2021/09/13 12:30:30;;;;;;;2.50;1.30;;;22.00;60.90;;;;;;5053244;28;20250;-69
2021/09/13 12:32:58;;;;;;;2.03;1.20;;;22.00;60.80;;;;;;5053489;28;20249;-70
2021/09/13 12:35:50;;;;;;;2.47;1.00;;;22.10;60.80;;;;;;5053002;28;20203;-71
2021/09/13 12:38:22;;;;;;;3.47;0.90;;;22.10;60.80;;;;;;5050473;28;20270;-70
2021/09/13 12:41:00;;;;;;;4.25;1.10;;;22.10;60.70;;;;;;5053123;28;20265;-69
2021/09/13 12:43:28;;;;;;;1.75;0.88;;;22.10;60.70;;;;;;5052726;28;20675;-69
2021/09/13 12:46:08;;;;;;;1.45;1.05;;;22.20;60.80;;;;;;5052401;28;20274;-69
2021/09/13 12:48:35;;;;;;;1.42;1.05;;;22.20;60.60;;;;;;5052706;28;20641;-69
2021/09/13 12:51:01;;;;;;;2.53;1.02;;;22.20;60.50;;;;;;5052941;28;20258;-69
2021/09/13 12:53:30;;;;;;;4.65;1.70;;;22.20;60.80;;;;;;5051914;28;20248;-71
2021/09/13 12:56:00;;;;;;;3.33;0.95;;;22.30;60.90;;;;;;5052979;28;20666;-70
2021/09/13 12:58:34;;;;;;;3.53;1.55;;;22.30;60.60;;;;;;5052277;28;20175;-70